Time;durP1;ratioP1;P1;durP2;ratioP2;P2;SDS_P1;SDS_P2;PMS_P1;PMS_P2;Temp;Humidity;BMP_temperature;BMP_pressure;BME280_temperature;BME280_humidity;BME280_pressure;Samples;Min_cycle;Max_cycle;Signal;HPM_P1;HPM_P2
2023/11/25 00:00:48;;;;;;;9.83;1.90;;;;;;;5.49;100.00;101313.00;5039646;28;20437;-69
2023/11/25 00:03:14;;;;;;;6.47;1.47;;;;;;;5.46;100.00;101284.06;5036411;28;20551;-69
2023/11/25 00:05:39;;;;;;;8.73;1.60;;;;;;;5.37;100.00;101275.19;5042664;28;20508;-69
2023/11/25 00:08:05;;;;;;;8.13;1.53;;;;;;;5.48;100.00;101242.19;5037774;28;20442;-69
2023/11/25 00:10:31;;;;;;;11.47;1.70;;;;;;;5.55;100.00;101253.03;5038370;28;20180;-69
2023/11/25 00:12:56;;;;;;;8.50;1.53;;;;;;;4.86;100.00;101145.63;5036195;28;20470;-69
2023/11/25 00:15:25;;;;;;;8.73;1.70;;;;;;;5.14;100.00;101215.47;5035615;28;20965;-69
2023/11/25 00:17:54;;;;;;;12.33;1.90;;;;;;;5.27;100.00;101241.69;5036447;28;20283;-69
2023/11/25 00:20:20;;;;;;;10.33;2.43;;;;;;;5.37;100.00;101218.47;5036606;28;20472;-69
2023/11/25 00:22:46;;;;;;;9.97;2.00;;;;;;;5.54;100.00;101217.59;5036629;28;20480;-69
2023/11/25 00:25:12;;;;;;;10.40;1.90;;;;;;;5.69;100.00;101225.84;5033976;28;20470;-69
2023/11/25 00:27:38;;;;;;;10.27;2.13;;;;;;;5.75;100.00;101229.69;5036736;28;20187;-69
2023/11/25 00:30:05;;;;;;;11.13;2.40;;;;;;;5.93;100.00;101224.31;5035368;28;20471;-69
2023/11/25 00:32:36;;;;;;;10.57;1.70;;;;;;;5.85;100.00;101228.59;5033815;28;20468;-69
2023/11/25 00:35:02;;;;;;;11.13;1.60;;;;;;;5.65;100.00;101197.88;5044134;28;21088;-69
2023/11/25 00:37:28;;;;;;;10.83;2.03;;;;;;;5.71;100.00;101249.66;5036775;28;21150;-69
2023/11/25 00:39:53;;;;;;;9.47;2.23;;;;;;;5.65;100.00;101259.94;5033793;28;20515;-69
2023/11/25 00:42:21;;;;;;;7.70;1.60;;;;;;;5.44;100.00;101267.44;5036681;28;20192;-69
2023/11/25 00:44:46;;;;;;;8.60;2.07;;;;;;;5.34;100.00;101266.69;5036931;28;20210;-69
2023/11/25 00:47:13;;;;;;;7.90;1.90;;;;;;;5.54;100.00;101270.00;5033934;28;20526;-69
2023/11/25 00:49:41;;;;;;;9.53;1.53;;;;;;;5.40;100.00;101279.34;5037028;28;20184;-69
2023/11/25 00:52:07;;;;;;;9.87;1.63;;;;;;;5.38;100.00;101278.66;5038758;28;20441;-69
2023/11/25 00:54:33;;;;;;;7.27;1.33;;;;;;;5.04;100.00;101239.50;5036453;28;20465;-69
2023/11/25 00:57:01;;;;;;;9.17;1.80;;;;;;;5.39;100.00;101302.47;5038396;28;20929;-69
2023/11/25 00:59:26;;;;;;;8.03;2.07;;;;;;;5.20;100.00;101255.59;5036544;28;20468;-69
2023/11/25 01:01:52;;;;;;;10.97;1.83;;;;;;;5.60;100.00;101256.06;5033947;28;20438;-69
2023/11/25 01:04:18;;;;;;;12.07;3.03;;;;;;;5.60;100.00;101240.09;5035206;28;22116;-69
2023/11/25 01:06:47;;;;;;;13.27;2.60;;;;;;;5.82;100.00;101236.91;5034999;28;20473;-69
2023/11/25 01:09:15;;;;;;;13.50;3.10;;;;;;;6.01;100.00;101240.34;5039759;28;20187;-69
2023/11/25 01:11:44;;;;;;;8.33;1.80;;;;;;;5.98;100.00;101248.66;5035254;28;20439;-69
2023/11/25 01:14:10;;;;;;;8.27;1.73;;;;;;;5.87;100.00;101213.31;5034389;28;21015;-69
2023/11/25 01:16:36;;;;;;;8.57;1.70;;;;;;;6.05;100.00;101218.59;5035675;28;20449;-69
2023/11/25 01:19:01;;;;;;;10.13;1.63;;;;;;;5.94;100.00;101202.88;5031433;28;20191;-69
2023/11/25 01:21:27;;;;;;;8.03;1.43;;;;;;;5.92;100.00;101166.72;5033268;28;20192;-70
2023/11/25 01:23:52;;;;;;;12.77;2.17;;;;;;;6.15;100.00;101190.97;5032062;28;20463;-69
2023/11/25 01:26:18;;;;;;;6.90;1.83;;;;;;;5.63;100.00;101128.84;5034407;28;20654;-69
2023/11/25 01:28:44;;;;;;;9.20;2.30;;;;;;;5.89;100.00;101157.22;5032619;28;20659;-69
2023/11/25 01:31:10;;;;;;;6.50;1.63;;;;;;;6.16;100.00;101200.63;5035500;28;20188;-69
2023/11/25 01:33:40;;;;;;;10.13;1.73;;;;;;;6.17;100.00;101199.66;5034839;28;20475;-69
2023/11/25 01:36:09;;;;;;;7.27;1.43;;;;;;;6.19;100.00;101200.31;5035431;28;20499;-69
2023/11/25 01:38:35;;;;;;;10.50;1.63;;;;;;;6.10;100.00;101184.31;5034215;28;20454;-69
2023/11/25 01:41:01;;;;;;;13.37;2.10;;;;;;;6.14;100.00;101192.81;5031701;28;20520;-69
2023/11/25 01:43:27;;;;;;;7.93;1.70;;;;;;;5.16;100.00;101105.31;5026494;28;20990;-69
2023/11/25 01:45:58;;;;;;;21.23;3.10;;;;;;;5.50;100.00;101165.72;5032310;28;20525;-69
2023/11/25 01:48:26;;;;;;;9.30;1.73;;;;;;;5.85;100.00;101198.50;5033293;28;20195;-69
2023/11/25 01:50:52;;;;;;;12.53;1.80;;;;;;;5.87;100.00;101201.81;5032788;28;20438;-69
2023/11/25 01:53:19;;;;;;;10.80;2.63;;;;;;;5.64;100.00;101183.75;5032555;28;21007;-69
2023/11/25 01:55:46;;;;;;;15.80;3.07;;;;;;;5.80;100.00;101214.94;5033107;28;20192;-69
2023/11/25 01:58:18;;;;;;;11.57;1.97;;;;;;;5.48;100.00;101170.34;5033244;28;20445;-69
2023/11/25 02:00:44;;;;;;;10.30;2.53;;;;;;;5.92;100.00;101223.47;5034098;28;21007;-69
2023/11/25 02:03:11;;;;;;;25.73;3.30;;;;;;;5.91;100.00;101210.34;5031689;28;20509;-69
2023/11/25 02:05:36;;;;;;;11.73;2.53;;;;;;;6.11;100.00;101227.75;5032965;28;20438;-69
2023/11/25 02:08:02;;;;;;;14.93;2.63;;;;;;;6.04;100.00;101208.06;5030297;28;21686;-69
2023/11/25 02:10:28;;;;;;;12.77;2.60;;;;;;;6.25;100.00;101224.50;5031683;28;20199;-69
2023/11/25 02:12:54;;;;;;;15.13;3.13;;;;;;;6.21;100.00;101228.47;5032338;28;20230;-69
2023/11/25 02:15:20;;;;;;;16.30;2.83;;;;;;;5.77;100.00;101161.19;5034792;28;20458;-69
2023/11/25 02:17:45;;;;;;;17.27;2.90;;;;;;;6.28;100.00;101220.69;5035106;28;20175;-69
2023/11/25 02:20:14;;;;;;;14.30;2.27;;;;;;;6.26;100.00;101209.34;5032099;28;20705;-69
2023/11/25 02:22:42;;;;;;;10.33;2.30;;;;;;;6.18;100.00;101201.31;5028502;28;20194;-69
2023/11/25 02:25:08;;;;;;;14.27;2.57;;;;;;;6.36;100.00;101215.34;5033000;28;20435;-69
2023/11/25 02:27:34;;;;;;;15.17;3.13;;;;;;;6.32;100.00;101196.19;5030920;28;20461;-69
2023/11/25 02:30:02;;;;;;;12.03;2.00;;;;;;;6.26;100.00;101180.88;5032281;28;20319;-69
2023/11/25 02:32:28;;;;;;;10.50;1.80;;;;;;;6.43;100.00;101205.72;5029436;28;20521;-69
2023/11/25 02:34:53;;;;;;;12.80;2.23;;;;;;;6.43;100.00;101195.06;5030315;28;20619;-69
2023/11/25 02:37:19;;;;;;;10.53;1.63;;;;;;;6.29;100.00;101171.72;5033839;28;20191;-69
2023/11/25 02:39:45;;;;;;;7.10;1.30;;;;;;;5.71;100.00;101050.03;5031330;28;20446;-71
2023/11/25 02:42:12;;;;;;;6.37;1.10;;;;;;;6.03;100.00;101082.09;5031896;28;20175;-69
2023/11/25 02:44:37;;;;;;;6.30;1.23;;;;;;;6.26;100.00;101073.47;5039136;28;20242;-69
2023/11/25 02:47:04;;;;;;;10.13;1.97;;;;;;;6.44;100.00;101078.66;5040176;28;20435;-69
2023/11/25 02:49:30;;;;;;;9.13;1.93;;;;;;;6.10;100.00;101029.00;5036291;28;20184;-69
2023/11/25 02:51:55;;;;;;;12.43;2.33;;;;;;;6.46;100.00;101042.03;5035145;28;20465;-69
2023/11/25 02:54:22;;;;;;;9.83;2.20;;;;;;;6.66;100.00;101056.66;5030808;28;20609;-69
2023/11/25 02:56:48;;;;;;;8.60;1.63;;;;;;;6.62;100.00;101049.16;5029115;28;20566;-69
2023/11/25 02:59:14;;;;;;;9.87;2.03;;;;;;;6.53;100.00;101032.34;5034417;28;20446;-69
2023/11/25 03:01:48;;;;;;;9.67;1.70;;;;;;;6.33;100.00;101035.38;5033954;28;20970;-69
2023/11/25 03:04:19;;;;;;;13.23;2.83;;;;;;;6.48;100.00;101064.84;5029861;28;20451;-69
2023/11/25 03:06:45;;;;;;;9.90;2.00;;;;;;;5.90;100.00;100967.19;5031430;28;20495;-69
2023/11/25 03:09:11;;;;;;;9.30;2.63;;;;;;;6.32;100.00;101055.00;5034687;28;20442;-69
2023/11/25 03:11:37;;;;;;;11.47;2.17;;;;;;;6.41;100.00;101063.00;5031298;28;20476;-69
2023/11/25 03:14:03;;;;;;;11.77;1.87;;;;;;;5.98;100.00;101071.09;5032884;28;20909;-69
2023/11/25 03:16:30;;;;;;;9.70;2.10;;;;;;;5.84;100.00;101034.41;5030735;28;20278;-69
2023/11/25 03:18:56;;;;;;;9.03;1.53;;;;;;;6.05;100.00;101048.16;5028400;28;20449;-69
2023/11/25 03:21:22;;;;;;;9.33;1.63;;;;;;;6.36;100.00;101091.97;5034121;28;20523;-69
2023/11/25 03:23:48;;;;;;;9.10;1.10;;;;;;;6.16;100.00;101073.63;5031954;28;21085;-69
2023/11/25 03:26:14;;;;;;;5.03;1.10;;;;;;;6.00;100.00;101039.81;5033972;28;20699;-69
2023/11/25 03:28:39;;;;;;;3.80;1.00;;;;;;;5.74;100.00;100983.16;5035646;28;20263;-69
2023/11/25 03:31:07;;;;;;;4.00;1.10;;;;;;;5.93;100.00;101003.31;5037056;28;20526;-69
2023/11/25 03:33:33;;;;;;;5.10;1.43;;;;;;;6.33;100.00;101053.16;5032948;28;20215;-69
2023/11/25 03:35:59;;;;;;;5.60;1.10;;;;;;;6.14;100.00;101049.00;5034979;28;20462;-69
2023/11/25 03:38:24;;;;;;;6.80;0.77;;;;;;;6.13;100.00;101027.84;5036329;28;20524;-69
2023/11/25 03:40:52;;;;;;;4.00;0.80;;;;;;;5.98;100.00;101009.84;5029962;28;20192;-69
2023/11/25 03:43:18;;;;;;;3.17;0.90;;;;;;;5.86;100.00;100984.50;5037292;28;20192;-69
2023/11/25 03:45:43;;;;;;;6.27;1.23;;;;;;;5.60;100.00;100940.22;5034875;28;20438;-69
2023/11/25 03:48:09;;;;;;;4.37;0.90;;;;;;;5.43;100.00;100946.50;5029946;28;20215;-69
2023/11/25 03:50:34;;;;;;;6.57;1.40;;;;;;;5.71;100.00;100991.47;5034920;28;20186;-69
2023/11/25 03:53:01;;;;;;;7.00;1.27;;;;;;;5.76;100.00;101010.47;5032590;28;20204;-69
2023/11/25 03:55:26;;;;;;;9.80;1.80;;;;;;;5.70;100.00;101021.72;5031262;28;20232;-69
2023/11/25 03:57:52;;;;;;;8.10;1.60;;;;;;;5.33;100.00;100967.09;5028841;28;20438;-69
2023/11/25 04:00:18;;;;;;;9.10;1.77;;;;;;;5.72;100.00;101060.50;5029699;28;20299;-69
2023/11/25 04:02:47;;;;;;;8.63;1.73;;;;;;;5.72;100.00;101065.81;5036946;28;20187;-69
2023/11/25 04:05:13;;;;;;;9.97;2.10;;;;;;;5.72;100.00;101073.81;5034234;28;20430;-69
2023/11/25 04:07:39;;;;;;;8.20;2.13;;;;;;;5.97;100.00;101096.06;5032241;28;20441;-69
2023/11/25 04:10:12;;;;;;;13.03;2.10;;;;;;;5.92;100.00;101106.31;5034127;28;20473;-69
2023/11/25 04:12:45;;;;;;;20.40;2.20;;;;;;;5.46;100.00;101065.06;5041121;28;20183;-69
2023/11/25 04:15:12;;;;;;;11.63;2.30;;;;;;;5.75;100.00;101096.63;5040931;28;20436;-69
2023/11/25 04:17:39;;;;;;;14.40;2.40;;;;;;;5.78;100.00;101122.91;5040332;28;20456;-69
2023/11/25 04:20:17;;;;;;;12.60;2.50;;;;;;;6.13;100.00;101155.69;5035259;28;20435;-69
2023/11/25 04:22:44;;;;;;;11.00;2.27;;;;;;;6.32;100.00;101203.34;5036589;28;20449;-69
2023/11/25 04:25:13;;;;;;;11.17;2.47;;;;;;;6.23;100.00;101213.16;5040083;28;20520;-69
2023/11/25 04:27:44;;;;;;;10.83;1.80;;;;;;;5.67;100.00;101225.19;5036612;28;20470;-69
2023/11/25 04:30:11;;;;;;;14.20;1.90;;;;;;;5.40;100.00;101228.81;5038733;28;20481;-69
2023/11/25 04:32:43;;;;;;;8.90;1.40;;;;;;;5.35;100.00;101216.00;5042409;28;20870;-69
2023/11/25 04:35:08;;;;;;;5.23;1.00;;;;;;;5.03;100.00;101239.66;5037272;28;20448;-69
2023/11/25 04:37:35;;;;;;;4.93;1.07;;;;;;;5.04;100.00;101244.00;5038537;28;20446;-69
2023/11/25 04:40:04;;;;;;;11.30;1.80;;;;;;;5.32;100.00;101268.66;5037989;28;20446;-69
2023/11/25 04:42:30;;;;;;;4.13;0.93;;;;;;;5.05;100.00;101230.53;5037988;28;20438;-69
2023/11/25 04:44:56;;;;;;;3.50;0.90;;;;;;;5.42;100.00;101309.31;5040080;28;20506;-69
2023/11/25 04:47:21;;;;;;;7.80;1.30;;;;;;;5.26;100.00;101282.56;5041697;28;20183;-69
2023/11/25 04:49:47;;;;;;;4.20;0.70;;;;;;;5.53;100.00;101297.59;5031260;28;20212;-69
2023/11/25 04:52:13;;;;;;;3.90;0.80;;;;;;;5.20;100.00;101266.22;5040423;28;20805;-69
2023/11/25 04:54:39;;;;;;;4.63;1.03;;;;;;;5.09;100.00;101297.53;5037039;28;20199;-69
2023/11/25 04:57:06;;;;;;;5.43;0.90;;;;;;;5.26;100.00;101296.69;5035629;28;20816;-69
2023/11/25 04:59:31;;;;;;;4.30;0.77;;;;;;;5.25;100.00;101294.19;5039606;23;20306;-68
2023/11/25 05:01:57;;;;;;;6.70;0.83;;;;;;;4.85;100.00;101256.44;5002087;28;20447;-67
2023/11/25 05:04:22;;;;;;;4.90;0.70;;;;;;;4.89;100.00;101270.25;5015483;28;20204;-68
2023/11/25 05:06:48;;;;;;;3.60;0.90;;;;;;;5.21;100.00;101321.09;5020212;28;20869;-68
2023/11/25 05:09:13;;;;;;;7.33;1.10;;;;;;;5.32;100.00;101311.19;5016258;28;20177;-68
2023/11/25 05:11:42;;;;;;;3.50;0.80;;;;;;;5.20;100.00;101319.41;5015218;28;20180;-68
2023/11/25 05:14:07;;;;;;;4.67;1.00;;;;;;;5.02;100.00;101261.91;5015306;28;20307;-67
2023/11/25 05:16:32;;;;;;;8.17;1.43;;;;;;;4.57;100.00;101217.59;5020361;28;20444;-68
2023/11/25 05:18:58;;;;;;;6.50;1.10;;;;;;;5.02;100.00;101270.72;5015255;28;20276;-68
2023/11/25 05:21:23;;;;;;;7.53;1.47;;;;;;;5.33;100.00;101313.72;5012096;28;20196;-70
2023/11/25 05:23:49;;;;;;;11.30;1.50;;;;;;;4.47;100.00;101196.44;5015162;28;20200;-70
2023/11/25 05:26:15;;;;;;;4.90;0.90;;;;;;;5.18;100.00;101304.63;5014137;28;20278;-70
2023/11/25 05:28:41;;;;;;;6.47;1.30;;;;;;;5.05;100.00;101304.97;5016247;28;20185;-70
2023/11/25 05:31:07;;;;;;;6.93;1.10;;;;;;;4.47;100.00;101236.28;5021133;28;20454;-70
2023/11/25 05:33:33;;;;;;;7.13;1.60;;;;;;;5.11;100.00;101299.06;5018595;28;20217;-70
2023/11/25 05:35:59;;;;;;;10.10;2.47;;;;;;;5.51;100.00;101331.50;5017641;28;20192;-70
2023/11/25 05:38:27;;;;;;;15.30;2.50;;;;;;;5.35;100.00;101292.28;5017009;28;20485;-70
2023/11/25 05:40:53;;;;;;;7.60;2.00;;;;;;;5.38;100.00;101303.47;5015382;28;21015;-70
2023/11/25 05:43:19;;;;;;;13.93;2.30;;;;;;;5.15;100.00;101239.28;5017279;28;20460;-71
2023/11/25 05:45:46;;;;;;;21.40;3.13;;;;;;;5.55;100.00;101306.25;5016416;28;20189;-71
2023/11/25 05:48:12;;;;;;;15.33;2.37;;;;;;;5.68;100.00;101285.41;5019851;28;20188;-70
2023/11/25 05:50:38;;;;;;;12.67;2.73;;;;;;;5.75;100.00;101299.75;5016794;28;20446;-70
2023/11/25 05:53:04;;;;;;;14.33;2.83;;;;;;;5.58;100.00;101266.88;5015719;28;20573;-70
2023/11/25 05:55:30;;;;;;;12.57;3.00;;;;;;;5.81;100.00;101311.59;5017423;28;20522;-71
2023/11/25 05:57:55;;;;;;;12.60;2.67;;;;;;;5.69;100.00;101295.03;5017489;28;20434;-71
2023/11/25 06:00:24;;;;;;;14.00;2.10;;;;;;;5.65;100.00;101315.81;5022429;28;20191;-70
2023/11/25 06:02:49;;;;;;;9.17;2.07;;;;;;;5.78;100.00;101319.88;5020311;28;20180;-71
2023/11/25 06:05:15;;;;;;;6.20;1.30;;;;;;;5.19;100.00;101259.25;5015680;28;20461;-71
2023/11/25 06:07:41;;;;;;;9.10;1.40;;;;;;;5.50;100.00;101290.75;5013256;28;20200;-71
2023/11/25 06:10:09;;;;;;;5.33;1.40;;;;;;;5.47;100.00;101284.88;5021938;28;20200;-70
2023/11/25 06:12:34;;;;;;;10.90;1.43;;;;;;;5.76;100.00;101300.59;5018658;28;20194;-70
2023/11/25 06:15:00;;;;;;;11.53;1.50;;;;;;;5.52;100.00;101267.47;5019780;28;20443;-71
2023/11/25 06:17:25;;;;;;;7.87;1.40;;;;;;;5.68;100.00;101293.38;5013715;28;20702;-70
2023/11/25 06:19:52;;;;;;;7.50;1.77;;;;;;;5.49;100.00;101238.50;5012531;28;20444;-70
2023/11/25 06:22:17;;;;;;;6.10;1.30;;;;;;;5.68;100.00;101282.72;5012117;28;20220;-70
2023/11/25 06:24:43;;;;;;;12.40;2.20;;;;;;;5.67;100.00;101254.47;5012796;28;20487;-70
2023/11/25 06:27:08;;;;;;;10.80;2.23;;;;;;;5.69;100.00;101223.19;5014838;28;20565;-70
2023/11/25 06:29:34;;;;;;;13.23;1.63;;;;;;;5.77;100.00;101243.69;5016504;28;22952;-70
2023/11/25 06:31:59;;;;;;;10.70;1.77;;;;;;;6.05;100.00;101265.69;5014002;28;20195;-69
2023/11/25 06:34:25;;;;;;;9.13;1.53;;;;;;;5.85;100.00;101238.41;5018302;28;20267;-70
2023/11/25 06:36:52;;;;;;;10.57;1.90;;;;;;;6.06;100.00;101278.00;5014434;28;20652;-69
2023/11/25 06:39:20;;;;;;;12.53;2.83;;;;;;;5.48;100.00;101204.09;5017470;28;20275;-70
2023/11/25 06:41:48;;;;;;;11.90;1.67;;;;;;;5.63;100.00;101218.47;5017693;28;20446;-70
2023/11/25 06:44:17;;;;;;;13.73;2.43;;;;;;;6.06;100.00;101278.00;5017332;28;20483;-69
2023/11/25 06:46:43;;;;;;;8.10;2.20;;;;;;;5.95;100.00;101254.31;5017840;28;20514;-70
2023/11/25 06:49:09;;;;;;;8.67;1.67;;;;;;;5.91;100.00;101268.91;5017850;28;20435;-70
2023/11/25 06:51:35;;;;;;;10.07;1.70;;;;;;;5.82;100.00;101276.84;5015740;28;20829;-70
2023/11/25 06:54:00;;;;;;;12.87;3.10;;;;;;;5.65;100.00;101289.19;5015593;28;20239;-70
2023/11/25 06:56:26;;;;;;;8.33;3.00;;;;;;;5.90;100.00;101310.66;5015765;28;20193;-70
2023/11/25 06:58:52;;;;;;;14.97;4.20;;;;;;;5.73;100.00;101292.91;5010118;28;20188;-71
2023/11/25 07:01:24;;;;;;;11.43;5.30;;;;;;;5.70;100.00;101307.38;5017105;28;20439;-70
2023/11/25 07:03:50;;;;;;;9.23;2.63;;;;;;;5.96;100.00;101338.50;5010457;28;20234;-71
2023/11/25 07:06:17;;;;;;;16.87;2.97;;;;;;;5.62;100.00;101286.03;5016385;28;20526;-70
2023/11/25 07:08:44;;;;;;;10.50;2.00;;;;;;;5.87;100.00;101361.53;5012516;28;20196;-71
2023/11/25 07:11:10;;;;;;;15.43;2.40;;;;;;;5.89;100.00;101333.78;5015455;28;20455;-71
2023/11/25 07:13:36;;;;;;;10.50;2.40;;;;;;;6.08;100.00;101345.28;5018156;28;20470;-71
2023/11/25 07:16:04;;;;;;;9.93;2.10;;;;;;;5.86;100.00;101309.31;5022948;28;20443;-71
2023/11/25 07:18:32;;;;;;;11.97;2.40;;;;;;;6.09;100.00;101346.94;5020678;28;20958;-70
2023/11/25 07:20:59;;;;;;;12.17;2.30;;;;;;;6.10;100.00;101321.94;5019107;28;20434;-70
2023/11/25 07:23:25;;;;;;;8.83;1.47;;;;;;;6.01;100.00;101333.56;5018509;28;20458;-70
2023/11/25 07:25:50;;;;;;;6.37;1.00;;;;;;;5.63;100.00;101267.22;5018592;28;20442;-70
2023/11/25 07:28:16;;;;;;;5.80;1.20;;;;;;;5.40;100.00;101229.63;5015139;28;20263;-70
2023/11/25 07:30:42;;;;;;;4.70;0.90;;;;;;;5.81;100.00;101312.41;5019308;28;20211;-70
2023/11/25 07:33:08;;;;;;;16.43;1.20;;;;;;;5.56;100.00;101273.34;5021907;28;20254;-70
2023/11/25 07:35:34;;;;;;;5.83;1.20;;;;;;;5.86;100.00;101301.31;5015119;28;21021;-70
2023/11/25 07:38:00;;;;;;;5.90;1.00;;;;;;;5.79;100.00;101290.47;5014742;28;20439;-70
2023/11/25 07:40:25;;;;;;;6.20;1.43;;;;;;;5.85;100.00;101308.47;5017300;28;20185;-70
2023/11/25 07:42:51;;;;;;;11.43;1.60;;;;;;;5.79;100.00;101293.13;5018482;28;20435;-70
2023/11/25 07:45:16;;;;;;;6.10;1.30;;;;;;;5.91;100.00;101333.63;5016812;28;20600;-70
2023/11/25 07:47:44;;;;;;;8.23;1.53;;;;;;;5.80;100.00;101301.94;5018920;28;20196;-70
2023/11/25 07:50:12;;;;;;;11.60;2.33;;;;;;;5.62;100.00;101289.50;5021199;28;20184;-70
2023/11/25 07:52:38;;;;;;;9.20;2.40;;;;;;;5.80;100.00;101305.44;5019696;28;20923;-70
2023/11/25 07:55:04;;;;;;;14.63;2.03;;;;;;;5.68;100.00;101276.59;5023687;28;20530;-70
2023/11/25 07:57:30;;;;;;;11.97;2.70;;;;;;;6.00;100.00;101305.25;5025509;28;20694;-70
2023/11/25 07:59:56;;;;;;;10.50;2.43;;;;;;;6.08;100.00;101313.31;5025264;28;20527;-77
2023/11/25 08:02:21;;;;;;;13.80;2.47;;;;;;;5.97;100.00;101294.94;5023944;28;20934;-77
2023/11/25 08:04:47;;;;;;;14.57;2.87;;;;;;;6.22;100.00;101320.72;5012670;28;20211;-77
2023/11/25 08:07:12;;;;;;;9.97;2.57;;;;;;;6.28;100.00;101329.91;5015723;28;20184;-77
2023/11/25 08:09:38;;;;;;;12.53;3.40;;;;;;;6.09;100.00;101294.50;5016977;28;20188;-77
2023/11/25 08:12:04;;;;;;;8.23;2.10;;;;;;;5.61;100.00;101217.81;5019377;28;20185;-77
2023/11/25 08:14:30;;;;;;;14.23;3.50;;;;;;;5.60;100.00;101202.84;5019045;28;20216;-75
2023/11/25 08:16:55;;;;;;;18.57;3.47;;;;;;;6.30;100.00;101311.91;5017663;28;20184;-75
2023/11/25 08:19:24;;;;;;;16.97;2.50;;;;;;;6.34;100.00;101311.44;5023609;28;20195;-76
2023/11/25 08:21:50;;;;;;;12.07;2.30;;;;;;;6.61;100.00;101348.69;5018277;28;20193;-75
2023/11/25 08:24:17;;;;;;;10.13;2.50;;;;;;;6.16;100.00;101293.84;5026513;28;20441;-75
2023/11/25 08:26:43;;;;;;;6.50;1.50;;;;;;;6.51;100.00;101357.66;5019133;28;20180;-75
2023/11/25 08:29:09;;;;;;;7.47;1.23;;;;;;;6.41;100.00;101319.63;5019185;28;20453;-74
2023/11/25 08:31:34;;;;;;;7.27;1.23;;;;;;;6.27;100.00;101266.94;5017676;28;20953;-76
2023/11/25 08:34:09;;;;;;;4.20;0.90;;;;;;;5.75;100.00;101187.13;5025277;28;20224;-75
2023/11/25 08:36:52;;;;;;;7.23;1.13;;;;;;;6.41;100.00;101273.50;5022820;28;20950;-76
2023/11/25 08:39:25;;;;;;;6.57;1.23;;;;;;;6.35;100.00;101229.69;5028332;28;20435;-76
2023/11/25 08:41:51;;;;;;;5.50;1.27;;;;;;;5.60;100.00;101099.06;5024758;28;20443;-74
2023/11/25 08:44:16;;;;;;;3.93;0.90;;;;;;;6.21;100.00;101206.31;5024408;28;20443;-78
2023/11/25 08:46:45;;;;;;;8.90;1.33;;;;;;;5.16;100.00;101035.34;5020216;28;20188;-76
2023/11/25 08:49:13;;;;;;;5.40;1.33;;;;;;;6.25;100.00;101221.81;5018065;28;20184;-77
2023/11/25 08:52:38;;;;;;;18.80;1.63;;;;;;;6.53;100.00;101245.53;5020261;28;20513;-77
2023/11/25 08:55:07;;;;;;;8.33;1.73;;;;;;;6.61;100.00;101271.41;5020878;28;20443;-76
2023/11/25 08:57:36;;;;;;;7.33;1.40;;;;;;;5.87;100.00;101161.88;5015847;28;21371;-76
2023/11/25 09:00:06;;;;;;;14.10;1.13;;;;;;;6.38;100.00;101228.53;5018281;28;20450;-75
2023/11/25 09:02:32;;;;;;;6.57;1.80;;;;;;;5.64;100.00;101122.53;5017668;28;20934;-74
2023/11/25 09:04:57;;;;;;;9.30;1.70;;;;;;;6.03;100.00;101195.78;5021236;28;20476;-75
2023/11/25 09:07:26;;;;;;;12.20;2.20;;;;;;;6.14;100.00;101215.97;5023785;28;20249;-75
2023/11/25 09:09:51;;;;;;;5.87;1.70;;;;;;;6.13;100.00;101249.72;5017365;28;20188;-75
2023/11/25 09:12:17;;;;;;;12.50;1.60;;;;;;;6.01;100.00;101254.50;5010998;28;20497;-74
2023/11/25 09:14:46;;;;;;;8.63;1.60;;;;;;;6.49;100.00;101350.81;5017423;28;20212;-73
2023/11/25 09:17:15;;;;;;;6.27;1.50;;;;;;;6.31;100.00;101351.72;5016262;28;20865;-72
2023/11/25 09:19:42;;;;;;;10.37;2.20;;;;;;;5.80;100.00;101294.78;5018793;28;20597;-71
2023/11/25 09:22:07;;;;;;;8.40;1.83;;;;;;;6.03;100.00;101384.84;5017230;28;20446;-72
2023/11/25 09:24:33;;;;;;;12.20;2.87;;;;;;;5.79;100.00;101372.16;5011897;28;20467;-72
2023/11/25 09:26:58;;;;;;;10.50;1.57;;;;;;;5.75;100.00;101315.72;5016651;28;20364;-72
2023/11/25 09:29:24;;;;;;;7.20;1.67;;;;;;;5.94;100.00;101372.47;5018383;28;20751;-70
2023/11/25 09:31:49;;;;;;;9.10;1.70;;;;;;;5.68;100.00;101359.91;5018589;28;20732;-71
2023/11/25 09:34:15;;;;;;;7.63;1.50;;;;;;;5.91;100.00;101383.41;5019633;28;20217;-71
2023/11/25 09:36:40;;;;;;;5.33;1.50;;;;;;;5.08;100.00;101288.72;5012830;28;20238;-71
2023/11/25 09:39:09;;;;;;;4.73;1.20;;;;;;;5.36;100.00;101316.09;5021527;28;20200;-70
2023/11/25 09:41:35;;;;;;;8.53;1.50;;;;;;;5.84;100.00;101415.09;5018005;28;20193;-70
2023/11/25 09:44:05;;;;;;;5.33;1.20;;;;;;;5.94;100.00;101402.59;5009868;28;20964;-76
2023/11/25 09:46:37;;;;;;;8.00;1.67;;;;;;;6.19;100.00;101405.41;5016997;28;20644;-73
2023/11/25 09:49:02;;;;;;;7.27;1.63;;;;;;;5.76;100.00;101325.38;5016113;28;20471;-75
2023/11/25 09:51:32;;;;;;;11.53;1.70;;;;;;;6.31;100.00;101398.84;5012705;28;20533;-72
2023/11/25 09:54:04;;;;;;;9.80;2.30;;;;;;;6.28;100.00;101389.34;5014634;28;20267;-73
2023/11/25 09:56:29;;;;;;;8.37;1.47;;;;;;;6.68;100.00;101432.34;5018227;28;20438;-74
2023/11/25 09:58:55;;;;;;;10.63;2.00;;;;;;;6.82;100.00;101442.44;5015324;28;20806;-72
2023/11/25 10:01:22;;;;;;;6.67;1.70;;;;;;;6.68;100.00;101411.88;5022214;28;20259;-73
2023/11/25 10:03:51;;;;;;;7.30;2.37;;;;;;;6.83;100.00;101444.13;5021038;28;20212;-78
2023/11/25 10:06:18;;;;;;;8.53;1.83;;;;;;;6.36;100.00;101374.38;5012946;28;20969;-73
2023/11/25 10:08:44;;;;;;;15.60;2.40;;;;;;;6.76;100.00;101451.06;5012075;28;20443;-73
2023/11/25 10:11:14;;;;;;;12.30;2.30;;;;;;;6.66;100.00;101429.88;5008296;28;20451;-74
2023/11/25 10:13:42;;;;;;;10.40;2.20;;;;;;;6.74;100.00;101453.03;5017923;28;20970;-73
2023/11/25 10:16:09;;;;;;;18.33;1.80;;;;;;;6.69;100.00;101463.38;5013015;28;20435;-71
2023/11/25 10:18:38;;;;;;;12.67;1.70;;;;;;;6.87;100.00;101466.78;5014375;28;20443;-73
2023/11/25 10:21:05;;;;;;;8.93;2.07;;;;;;;6.42;100.00;101376.41;5014313;28;20439;-74
2023/11/25 10:23:32;;;;;;;10.17;1.70;;;;;;;6.91;100.00;101440.63;5014083;28;20524;-72
2023/11/25 10:26:03;;;;;;;8.47;1.70;;;;;;;7.21;100.00;101477.44;5019607;28;20440;-73
2023/11/25 10:28:32;;;;;;;10.70;1.73;;;;;;;7.42;100.00;101495.69;5014673;28;20483;-74
2023/11/25 10:30:59;;;;;;;7.27;1.40;;;;;;;7.44;100.00;101484.88;5016149;28;24144;-77
2023/11/25 10:33:28;;;;;;;11.17;1.90;;;;;;;7.34;100.00;101494.81;5029444;28;20502;-76
2023/11/25 10:35:55;;;;;;;9.83;1.73;;;;;;;7.01;100.00;101434.19;5014880;28;20530;-73
2023/11/25 10:38:27;;;;;;;11.63;2.00;;;;;;;7.30;100.00;101498.84;5013994;28;20923;-74
2023/11/25 10:40:58;;;;;;;9.90;2.30;;;;;;;7.35;100.00;101499.19;5013834;28;20455;-72
2023/11/25 10:43:25;;;;;;;8.83;2.17;;;;;;;7.16;100.00;101506.44;5011251;28;20447;-75
2023/11/25 10:46:04;;;;;;;8.50;1.70;;;;;;;7.06;100.00;101499.53;5011727;28;20506;-75
2023/11/25 10:48:30;;;;;;;13.10;2.00;;;;;;;7.21;100.00;101480.13;5014795;28;20522;-76
2023/11/25 10:50:57;;;;;;;10.63;2.50;;;;;;;6.60;100.00;101365.69;5018847;28;20522;-75
2023/11/25 10:53:29;;;;;;;10.93;2.40;;;;;;;7.51;100.00;101490.38;5015111;28;20467;-74
2023/11/25 10:55:56;;;;;;;8.90;1.63;;;;;;;7.62;100.00;101474.06;5012033;28;20443;-75
2023/11/25 10:58:22;;;;;;;14.43;2.37;;;;;;;7.65;100.00;101465.72;5014011;28;20975;-75
2023/11/25 11:00:47;;;;;;;7.33;1.60;;;;;;;7.46;100.00;101408.13;5013862;28;20530;-77
2023/11/25 11:03:15;;;;;;;14.17;2.57;;;;;;;7.95;100.00;101503.47;5012512;28;20452;-78
2023/11/25 11:05:59;;;;;;;11.17;1.90;;;;;;;7.99;100.00;101515.53;5018005;28;20440;-76
2023/11/25 11:08:31;;;;;;;6.00;1.73;;;;;;;7.77;100.00;101471.59;5013049;28;20513;-75
2023/11/25 11:11:04;;;;;;;9.70;2.27;;;;;;;7.97;100.00;101486.28;5018047;28;20439;-74
2023/11/25 11:13:41;;;;;;;12.80;2.93;;;;;;;7.90;100.00;101475.44;5011999;28;20510;-75
2023/11/25 11:16:15;;;;;;;8.77;2.07;;;;;;;7.98;100.00;101484.44;5015404;28;20439;-73
2023/11/25 11:18:42;;;;;;;9.03;1.80;;;;;;;7.28;100.00;101354.88;5012311;28;21121;-76
2023/11/25 11:21:09;;;;;;;6.27;1.20;;;;;;;7.80;100.00;101442.69;5020914;28;20438;-73